Terminal Aerodrome Forecast
Issued by NWS

Home | Current Version | Previous Version | Text Only | Print | Product List | Glossary On
Versions: 1 2 3 4 5 6 7 8 9 10 11 12 13 14 15 16 17 18 19 20 21 22 23 24 25 26 27 28 29 30 31 32 33 34 35
000
FTUS43 KMKX 231741
TAFUES
TAF
KUES 231741Z 2318/2418 20009KT P6SM OVC200
     FM232000 19008KT 5SM -SHRA OVC035
     FM232300 19007KT P6SM VCSH OVC035
     FM240400 24004KT 5SM BR OVC020
     FM241000 28004KT 3SM BR OVC005
     FM241500 24004KT P6SM SCT005=

USA.gov is the U.S. government's official web portal to all federal, state and local government web resources and services.